createdAt,value
2018-08-07T00:00:03.958Z,17.49
2018-08-07T00:05:03.959Z,17.38
2018-08-07T00:10:03.960Z,17.28
2018-08-07T00:15:03.965Z,17.17
2018-08-07T00:20:03.965Z,17.17
2018-08-07T00:25:03.973Z,17.14
2018-08-07T00:30:03.977Z,17.05
2018-08-07T00:35:03.982Z,16.95
2018-08-07T00:40:03.980Z,16.88
2018-08-07T00:45:03.984Z,16.78
2018-08-07T00:50:04.017Z,16.69
2018-08-07T00:55:03.991Z,16.55
2018-08-07T01:00:03.990Z,16.47
2018-08-07T01:05:03.995Z,16.4
2018-08-07T01:10:03.996Z,16.3
2018-08-07T01:15:04.003Z,16.24
2018-08-07T01:20:03.997Z,16.22
2018-08-07T01:25:04.002Z,16.18
2018-08-07T01:30:04.005Z,16.24
2018-08-07T01:35:04.007Z,16.24
2018-08-07T01:40:04.012Z,16.22
2018-08-07T01:45:04.016Z,16.18
2018-08-07T01:50:04.016Z,16.16
2018-08-07T01:55:04.015Z,16.14
2018-08-07T02:00:04.020Z,16.08
2018-08-07T02:05:04.025Z,16.01
2018-08-07T02:10:04.030Z,15.99
2018-08-07T02:15:04.030Z,15.97
2018-08-07T02:20:04.033Z,15.85
2018-08-07T02:25:04.037Z,15.71
2018-08-07T02:30:04.038Z,15.63
2018-08-07T02:35:04.039Z,15.59
2018-08-07T02:40:04.047Z,15.6
2018-08-07T02:45:04.046Z,15.61
2018-08-07T02:50:04.053Z,15.6
2018-08-07T02:55:04.055Z,15.63
2018-08-07T03:00:04.053Z,15.66
2018-08-07T03:05:04.057Z,15.68
2018-08-07T03:10:04.063Z,15.61
2018-08-07T03:15:04.071Z,15.53
2018-08-07T03:20:04.067Z,15.49
2018-08-07T03:25:04.076Z,15.42
2018-08-07T03:30:04.072Z,15.46
2018-08-07T03:35:04.071Z,15.45
2018-08-07T03:40:04.075Z,15.53
2018-08-07T03:45:04.080Z,15.67
2018-08-07T03:50:04.084Z,15.74
2018-08-07T03:55:04.086Z,15.81
2018-08-07T04:00:04.085Z,15.88
2018-08-07T04:05:04.205Z,16.04
2018-08-07T04:10:04.097Z,16.19
2018-08-07T04:15:04.096Z,16.41
2018-08-07T04:20:04.099Z,16.69
2018-08-07T04:25:04.098Z,16.74
2018-08-07T04:30:04.103Z,16.8
2018-08-07T04:35:04.111Z,16.95
2018-08-07T04:40:04.112Z,17.03
2018-08-07T04:45:04.112Z,17.04
2018-08-07T04:50:04.111Z,17.14
2018-08-07T04:55:04.117Z,17.26
2018-08-07T05:00:04.121Z,17.41
2018-08-07T05:05:04.123Z,17.54
2018-08-07T05:10:04.127Z,17.64
2018-08-07T05:15:04.125Z,17.78
2018-08-07T05:20:04.131Z,17.95
2018-08-07T05:25:04.133Z,18.32
2018-08-07T05:30:04.137Z,18.63
2018-08-07T05:35:04.138Z,18.85
2018-08-07T05:40:04.143Z,19.25
2018-08-07T05:45:04.141Z,19.46
2018-08-07T05:50:04.234Z,19.65
2018-08-07T05:55:04.149Z,19.86
2018-08-07T06:00:04.152Z,20.12
2018-08-07T06:05:04.157Z,20.47
2018-08-07T06:10:04.159Z,20.57
2018-08-07T06:15:04.160Z,20.58
2018-08-07T06:20:04.159Z,20.49
2018-08-07T06:25:04.172Z,20.55
2018-08-07T06:30:04.177Z,20.7
2018-08-07T06:35:04.171Z,20.77
2018-08-07T06:40:04.176Z,21
2018-08-07T06:45:04.197Z,21.42
2018-08-07T06:50:04.181Z,21.85
2018-08-07T06:55:04.179Z,22.22
2018-08-07T07:00:04.183Z,22.55
2018-08-07T07:05:04.183Z,23.02
2018-08-07T07:10:04.187Z,23.49
2018-08-07T07:15:04.194Z,23.79
2018-08-07T07:20:04.197Z,24.06
2018-08-07T07:25:04.197Z,24.42
2018-08-07T07:30:04.199Z,24.99
2018-08-07T07:35:04.204Z,25.71
2018-08-07T07:40:04.203Z,26.25
2018-08-07T07:45:04.206Z,27.46
2018-08-07T07:50:04.212Z,28.48
2018-08-07T07:55:04.215Z,28.95
2018-08-07T08:00:04.218Z,29.63
2018-08-07T08:05:04.230Z,30.4
2018-08-07T08:10:04.223Z,31.06
2018-08-07T08:15:04.222Z,31.7
2018-08-07T08:20:04.239Z,32.35
2018-08-07T08:25:04.230Z,32.89
2018-08-07T08:30:04.384Z,33.02
2018-08-07T08:35:04.278Z,32.46
2018-08-07T08:40:04.242Z,32.24
2018-08-07T08:45:04.242Z,32.81
2018-08-07T08:50:04.238Z,33.3
2018-08-07T08:55:04.257Z,33.79
2018-08-07T09:00:04.249Z,34.62
2018-08-07T09:05:04.251Z,35.38
2018-08-07T09:10:04.265Z,35.44
2018-08-07T09:15:04.259Z,36.06
2018-08-07T09:20:04.261Z,36.83
2018-08-07T09:25:04.263Z,36.99
2018-08-07T09:30:04.260Z,37.96
2018-08-07T09:35:04.262Z,37.62
2018-08-07T09:40:04.319Z,37.32
2018-08-07T09:45:04.272Z,37.63
2018-08-07T09:50:04.281Z,37.64
2018-08-07T09:55:04.280Z,37.54
2018-08-07T10:00:04.280Z,37.47
2018-08-07T10:05:04.347Z,37.08
2018-08-07T10:10:04.288Z,37.07
2018-08-07T10:15:04.287Z,37.56
2018-08-07T10:20:04.290Z,37.94
2018-08-07T10:25:04.292Z,37.44
2018-08-07T10:30:04.293Z,36.57
2018-08-07T10:35:04.329Z,36.25
2018-08-07T10:40:04.301Z,35.6
2018-08-07T10:45:04.303Z,34.82
2018-08-07T10:50:04.305Z,34.71
2018-08-07T10:55:04.312Z,34.78
2018-08-07T11:00:04.314Z,35.51
2018-08-07T11:05:04.316Z,36.27
2018-08-07T11:10:04.321Z,36.83
2018-08-07T11:15:04.320Z,36.96
2018-08-07T11:20:04.322Z,36.73
2018-08-07T11:25:04.331Z,36.72
2018-08-07T11:30:04.458Z,37.06
2018-08-07T11:35:04.331Z,38.06
2018-08-07T11:40:04.342Z,39.33
2018-08-07T11:45:04.336Z,40.43
2018-08-07T11:50:04.341Z,41.71
2018-08-07T11:55:04.344Z,41.15
2018-08-07T12:00:04.345Z,42.15
2018-08-07T12:05:04.352Z,44.45
2018-08-07T12:10:04.352Z,44.86
2018-08-07T12:15:04.351Z,44.62
2018-08-07T12:20:04.352Z,45.58
2018-08-07T12:25:04.363Z,46.4
2018-08-07T12:30:04.363Z,46.79
2018-08-07T12:35:04.417Z,46.89
2018-08-07T12:40:04.372Z,46.18
2018-08-07T12:45:04.373Z,44.61
2018-08-07T12:50:04.372Z,43.83
2018-08-07T12:55:04.381Z,44.7
2018-08-07T13:00:04.376Z,43.65
2018-08-07T13:05:04.377Z,43.73
2018-08-07T13:10:04.387Z,45.56
2018-08-07T13:15:04.386Z,46.92
2018-08-07T13:20:04.386Z,46.81
2018-08-07T13:25:04.390Z,46.28
2018-08-07T13:30:04.393Z,44.68
2018-08-07T13:35:03.397Z,42.28
2018-08-07T13:40:03.399Z,41.99
2018-08-07T13:45:03.402Z,41.3
2018-08-07T13:50:03.404Z,40.45
2018-08-07T13:55:03.408Z,39.5
2018-08-07T14:00:03.405Z,38.84
2018-08-07T14:05:03.414Z,38.5
2018-08-07T14:10:03.416Z,38.4
2018-08-07T14:15:03.419Z,38.89
2018-08-07T14:20:03.421Z,40.38
2018-08-07T14:25:03.424Z,42.89
2018-08-07T14:30:03.429Z,45.28
2018-08-07T14:35:03.429Z,47.04
2018-08-07T14:40:03.430Z,48.46
2018-08-07T14:45:03.430Z,49.43
2018-08-07T14:50:03.436Z,49.85
2018-08-07T14:55:03.436Z,50.41
2018-08-07T15:00:03.444Z,50.53
2018-08-07T15:05:03.445Z,51.62
2018-08-07T15:10:03.452Z,51.98
2018-08-07T15:15:03.493Z,50.96
2018-08-07T15:20:03.479Z,51.04
2018-08-07T15:25:03.458Z,50.69
2018-08-07T15:30:03.462Z,50.37
2018-08-07T15:35:03.468Z,50.78
2018-08-07T15:40:03.468Z,50.03
2018-08-07T15:45:03.538Z,49.73
2018-08-07T15:50:03.477Z,50.13
2018-08-07T15:55:03.473Z,49.54
2018-08-07T16:00:03.476Z,49.69
2018-08-07T16:05:03.478Z,49.72
2018-08-07T16:10:03.482Z,48.54
2018-08-07T16:15:03.484Z,47.94
2018-08-07T16:20:03.485Z,46.19
2018-08-07T16:25:03.492Z,43.5
2018-08-07T16:30:03.505Z,41.44
2018-08-07T16:35:03.492Z,39.92
2018-08-07T16:40:03.500Z,38.82
2018-08-07T16:45:03.509Z,37.92
2018-08-07T16:50:03.498Z,37.35
2018-08-07T16:55:03.510Z,36.84
2018-08-07T17:00:03.503Z,36.26
2018-08-07T17:05:03.510Z,35.83
2018-08-07T17:10:03.507Z,35.6
2018-08-07T17:15:03.513Z,35.44
2018-08-07T17:20:03.517Z,35.25
2018-08-07T17:25:03.524Z,35.06
2018-08-07T17:30:03.518Z,34.88
2018-08-07T17:35:03.522Z,34.69
2018-08-07T17:40:03.523Z,34.18
2018-08-07T17:45:03.535Z,33.97
2018-08-07T17:50:03.531Z,33.71
2018-08-07T17:55:03.537Z,33.51
2018-08-07T18:00:03.536Z,33.42
2018-08-07T18:05:03.544Z,33.42
2018-08-07T18:10:03.557Z,33.5
2018-08-07T18:15:03.551Z,33.49
2018-08-07T18:20:03.550Z,33.4
2018-08-07T18:25:03.568Z,33.04
2018-08-07T18:30:03.553Z,32.62
2018-08-07T18:35:03.554Z,32.02
2018-08-07T18:40:03.566Z,31.42
2018-08-07T18:45:03.562Z,30.94
2018-08-07T18:50:03.569Z,30.59
2018-08-07T18:55:03.595Z,30.31
2018-08-07T19:00:03.568Z,30.09
2018-08-07T19:05:03.570Z,29.82
2018-08-07T19:10:03.592Z,29.47
2018-08-07T19:15:03.581Z,29.28
2018-08-07T19:20:03.582Z,29.31
2018-08-07T19:25:03.601Z,29.3
2018-08-07T19:30:03.589Z,29.2
2018-08-07T19:35:03.590Z,29.03
2018-08-07T19:40:03.611Z,28.91
2018-08-07T19:45:03.593Z,29.01
2018-08-07T19:50:03.601Z,29.05
2018-08-07T19:55:03.608Z,28.94
2018-08-07T20:00:03.610Z,28.87
2018-08-07T20:05:03.606Z,28.78
2018-08-07T20:10:03.619Z,28.57
2018-08-07T20:15:03.610Z,28.37
2018-08-07T20:20:03.615Z,41.01
2018-08-07T20:25:03.627Z,41.01
2018-08-07T20:30:03.619Z,27.84
2018-08-07T20:35:03.619Z,27.89
2018-08-07T20:40:03.633Z,27.5
2018-08-07T20:45:03.633Z,27.12
2018-08-07T20:50:03.629Z,26.79
2018-08-07T20:55:03.645Z,26.51
2018-08-07T21:00:03.636Z,26.26
2018-08-07T21:05:03.637Z,26.02
2018-08-07T21:10:03.650Z,25.95
2018-08-07T21:15:03.646Z,25.87
2018-08-07T21:20:03.640Z,25.83
2018-08-07T21:25:03.659Z,25.82
2018-08-07T21:30:03.656Z,25.72
2018-08-07T21:35:03.709Z,25.61
2018-08-07T21:40:03.676Z,25.46
2018-08-07T21:45:03.663Z,25.53
2018-08-07T21:50:03.664Z,25.56
2018-08-07T21:55:03.681Z,25.71
2018-08-07T22:00:03.666Z,25.76
2018-08-07T22:05:03.672Z,25.81
2018-08-07T22:10:03.696Z,25.81
2018-08-07T22:15:03.678Z,25.82
2018-08-07T22:20:03.680Z,25.78
2018-08-07T22:25:03.687Z,25.76
2018-08-07T22:30:03.687Z,25.62
2018-08-07T22:35:03.687Z,25.6
2018-08-07T22:40:03.697Z,25.58
2018-08-07T22:45:03.691Z,25.49
2018-08-07T22:50:03.702Z,25.4
2018-08-07T22:55:03.719Z,25.36
2018-08-07T23:00:06.352Z,25.2
2018-08-07T23:05:03.717Z,25.03
2018-08-07T23:10:03.712Z,24.87
2018-08-07T23:15:03.703Z,24.69
2018-08-07T23:20:03.713Z,24.6
2018-08-07T23:25:03.723Z,24.55
2018-08-07T23:30:03.713Z,24.41
2018-08-07T23:35:03.728Z,24.18
2018-08-07T23:40:03.732Z,24.01
2018-08-07T23:45:03.726Z,23.94
2018-08-07T23:50:03.733Z,24.01
2018-08-07T23:55:03.736Z,24.16
